Time;durP1;ratioP1;P1;durP2;ratioP2;P2;SDS_P1;SDS_P2;PMS_P1;PMS_P2;Temp;Humidity;BMP_temperature;BMP_pressure;BME280_temperature;BME280_humidity;BME280_pressure;Samples;Min_cycle;Max_cycle;Signal;HPM_P1;HPM_P2
2021/03/09 00:01:31;;;;;;;49.00;16.65;;;;;;;-2.08;56.02;101405.50;1706734;81;26998;-66
2021/03/09 00:03:58;;;;;;;54.08;15.68;;;;;;;-2.11;56.01;101402.39;1694764;81;25870;-66
2021/03/09 00:06:26;;;;;;;50.30;16.05;;;;;;;-2.12;56.06;101406.30;1697562;81;26022;-66
2021/03/09 00:08:54;;;;;;;49.50;16.30;;;;;;;-2.12;56.14;101403.67;1696037;83;26086;-66
2021/03/09 00:11:22;;;;;;;57.10;17.05;;;;;;;-2.14;56.21;101403.64;1695904;83;27766;-66
2021/03/09 00:13:50;;;;;;;53.55;14.93;;;;;;;-2.15;56.24;101407.13;1695718;83;25887;-67
2021/03/09 00:16:17;;;;;;;52.10;16.45;;;;;;;-2.17;56.36;101405.31;1696119;83;25859;-66
2021/03/09 00:18:45;;;;;;;51.68;16.25;;;;;;;-2.18;56.42;101404.86;1695895;83;26096;-66
2021/03/09 00:21:13;;;;;;;48.75;16.55;;;;;;;-2.18;56.50;101403.13;1696066;83;25745;-66
2021/03/09 00:23:41;;;;;;;57.90;17.27;;;;;;;-2.17;56.57;101402.27;1696285;83;27439;-66
2021/03/09 00:26:08;;;;;;;47.40;15.23;;;;;;;-2.18;56.51;101403.55;1696150;83;25850;-67
2021/03/09 00:28:36;;;;;;;46.95;15.60;;;;;;;-2.18;56.59;101406.17;1695997;83;25997;-67
2021/03/09 00:31:04;;;;;;;54.23;16.42;;;;;;;-2.18;56.66;101408.80;1713628;81;26072;-67
2021/03/09 00:33:31;;;;;;;55.17;17.25;;;;;;;-2.21;56.62;101408.73;1690234;81;25963;-67
2021/03/09 00:35:59;;;;;;;55.50;17.40;;;;;;;-2.23;56.79;101409.13;1691025;82;28540;-66
2021/03/09 00:38:27;;;;;;;47.90;15.00;;;;;;;-2.23;56.83;101409.13;1686180;82;25805;-67
2021/03/09 00:40:55;;;;;;;47.25;16.40;;;;;;;-2.27;56.80;101417.38;1688966;81;25844;-66
2021/03/09 00:43:22;;;;;;;50.52;15.63;;;;;;;-2.30;56.88;101416.87;1691632;81;26114;-66
2021/03/09 00:45:50;;;;;;;43.58;15.43;;;;;;;-2.29;57.03;101421.28;1681814;81;25870;-67
2021/03/09 00:48:18;;;;;;;54.42;14.65;;;;;;;-2.35;56.96;101407.14;1693943;81;27818;-66
2021/03/09 00:50:45;;;;;;;53.13;17.23;;;;;;;-2.30;57.06;101416.87;1693363;83;25884;-66
2021/03/09 00:53:13;;;;;;;47.38;15.40;;;;;;;-2.37;57.21;101397.92;1690219;81;25816;-66
2021/03/09 00:55:41;;;;;;;44.80;15.45;;;;;;;-2.25;57.28;101409.53;1636837;85;26119;-66
2021/03/09 00:58:09;;;;;;;55.95;15.40;;;;;;;-2.23;57.34;101413.95;1653361;83;25928;-66
2021/03/09 01:00:36;;;;;;;53.70;16.30;;;;;;;-2.25;57.38;101410.84;1697713;81;26402;-66
2021/03/09 01:03:04;;;;;;;61.23;17.15;;;;;;;-2.27;57.39;101406.87;1691502;81;26546;-66
2021/03/09 01:05:32;;;;;;;56.25;15.40;;;;;;;-2.29;57.50;101405.95;1698713;81;25934;-66
2021/03/09 01:08:00;;;;;;;46.98;15.28;;;;;;;-2.29;57.49;101407.27;1695652;81;25969;-66
2021/03/09 01:10:28;;;;;;;45.23;15.10;;;;;;;-2.30;57.57;101405.06;1706049;81;25892;-66
2021/03/09 01:12:55;;;;;;;64.97;17.15;;;;;;;-2.33;57.54;101397.55;1695401;82;27430;-66
2021/03/09 01:15:23;;;;;;;51.90;16.67;;;;;;;-2.36;57.61;101396.17;1690176;81;25852;-66
2021/03/09 01:17:51;;;;;;;55.00;18.80;;;;;;;-2.37;57.78;101397.03;1696829;82;25896;-66
2021/03/09 01:20:22;;;;;;;58.78;19.23;;;;;;;-2.37;57.83;101391.78;1683002;81;26576;-66
2021/03/09 01:22:50;;;;;;;;;;;;;;;-2.37;57.83;101395.29;1698538;83;25779;-66
2021/03/09 01:25:17;;;;;;;61.80;18.82;;;;;;;-2.40;57.93;101389.97;1692198;81;27812;-66
2021/03/09 01:27:45;;;;;;;54.15;18.62;;;;;;;-2.39;58.02;101389.55;1656863;83;26190;-66
2021/03/09 01:30:16;;;;;;;55.35;16.90;;;;;;;-2.42;57.98;101388.17;1691641;82;25940;-66
2021/03/09 01:32:45;;;;;;;53.05;16.85;;;;;;;-2.40;58.12;101388.66;1701579;81;25941;-66
2021/03/09 01:35:14;;;;;;;53.15;17.80;;;;;;;-2.39;58.13;101385.61;1693321;80;25928;-66
2021/03/09 01:37:42;;;;;;;51.55;16.48;;;;;;;-2.38;58.32;101376.45;1684205;83;28146;-66
2021/03/09 01:40:11;;;;;;;54.08;19.48;;;;;;;-2.36;58.30;101372.55;1694664;81;25820;-66
2021/03/09 01:42:39;;;;;;;51.80;18.65;;;;;;;-2.38;58.29;101378.20;1695122;81;26837;-66
2021/03/09 01:45:09;;;;;;;54.10;17.45;;;;;;;-2.43;58.35;101374.16;1691458;81;26605;-66
2021/03/09 01:47:42;;;;;;;59.20;19.02;;;;;;;-2.48;58.35;101367.93;1692984;81;25796;-66
2021/03/09 01:50:14;;;;;;;53.05;18.37;;;;;;;-2.53;58.42;101368.69;1693917;81;27924;-66
2021/03/09 01:52:44;;;;;;;66.50;18.67;;;;;;;-2.57;58.44;101369.05;1690704;81;25819;-66
2021/03/09 01:55:13;;;;;;;65.28;20.90;;;;;;;-2.63;58.52;101365.90;1696531;81;25837;-66
2021/03/09 01:57:42;;;;;;;61.37;19.57;;;;;;;-2.68;58.66;101357.04;1708432;81;25945;-66
2021/03/09 02:00:12;;;;;;;63.63;21.15;;;;;;;-2.69;58.70;101360.94;1695048;82;25828;-66
2021/03/09 02:02:40;;;;;;;55.98;19.40;;;;;;;-2.67;58.89;101363.17;1692854;81;27589;-66
2021/03/09 02:05:12;;;;;;;52.95;17.50;;;;;;;-2.67;58.81;101363.17;1698247;82;26482;-66
2021/03/09 02:07:40;;;;;;;56.85;16.80;;;;;;;-2.66;58.97;101366.26;1691979;81;25828;-66
2021/03/09 02:10:14;;;;;;;55.30;18.17;;;;;;;-2.64;59.08;101364.55;1696557;83;26293;-66
2021/03/09 02:13:30;;;;;;;55.40;18.50;;;;;;;-2.62;59.22;101368.98;1693025;82;25849;-67
2021/03/09 02:16:04;;;;;;;61.70;17.52;;;;;;;-2.59;59.26;101364.62;1684647;83;27466;-67
2021/03/09 02:19:03;;;;;;;56.60;17.30;;;;;;;-2.64;59.20;101360.62;1655143;83;25939;-66
2021/03/09 02:21:55;;;;;;;55.45;17.57;;;;;;;-2.65;59.18;101364.98;1652708;84;26013;-66
2021/03/09 02:24:49;;;;;;;54.48;19.00;;;;;;;-2.77;59.25;101363.83;1637880;85;26029;-66
2021/03/09 02:28:13;;;;;;;58.05;17.37;;;;;;;-2.79;59.36;101371.66;1611119;84;25904;-66
2021/03/09 02:30:43;;;;;;;57.60;18.73;;;;;;;-2.84;59.37;101364.54;1648250;85;28082;-67
2021/03/09 02:33:16;;;;;;;63.08;18.67;;;;;;;-2.90;59.53;101364.41;1640869;84;26324;-65
2021/03/09 02:36:01;;;;;;;59.70;18.42;;;;;;;-2.92;59.71;101365.67;1674088;83;25871;-65
2021/03/09 02:38:42;;;;;;;60.60;19.30;;;;;;;-2.89;59.81;101364.86;1646652;84;25849;-65
2021/03/09 02:41:12;;;;;;;60.98;18.90;;;;;;;-2.91;59.90;101362.20;1649569;86;30762;-65
2021/03/09 02:43:43;;;;;;;58.05;17.82;;;;;;;-2.84;60.03;101361.91;1638140;84;26559;-65
2021/03/09 02:46:14;;;;;;;60.25;18.27;;;;;;;-2.82;60.00;101366.34;1651846;84;26144;-66
2021/03/09 02:48:43;;;;;;;;;;;;;;;-2.87;59.93;101364.05;1669069;84;25826;-66
2021/03/09 02:51:12;;;;;;;61.77;18.23;;;;;;;-2.84;60.28;101364.11;1650895;85;26576;-65
2021/03/09 02:53:48;;;;;;;67.32;19.67;;;;;;;-2.85;60.25;101364.97;1653400;84;25812;-66
2021/03/09 02:56:17;;;;;;;57.62;18.65;;;;;;;-2.85;60.25;101364.08;1655080;84;27389;-66
2021/03/09 02:58:52;;;;;;;65.25;20.48;;;;;;;-2.85;60.25;101360.14;1646653;84;25875;-66
2021/03/09 03:01:24;;;;;;;52.05;17.80;;;;;;;-2.84;60.47;101361.91;1671297;84;25972;-65
2021/03/09 03:03:55;;;;;;;60.92;17.92;;;;;;;-2.86;60.36;101355.75;1651457;84;25890;-65
2021/03/09 03:06:24;;;;;;;52.17;17.87;;;;;;;-2.90;60.42;101357.42;1648614;84;25878;-65
2021/03/09 03:08:55;;;;;;;62.65;18.95;;;;;;;-2.95;60.43;101353.38;1661582;84;27791;-66
2021/03/09 03:11:24;;;;;;;;;;;;;;;-2.98;60.65;101352.42;1646022;84;25935;-65
2021/03/09 03:13:54;;;;;;;60.52;18.92;;;;;;;-2.95;60.85;101352.49;1669752;84;26041;-65
2021/03/09 03:16:24;;;;;;;55.40;17.45;;;;;;;-2.96;60.77;101353.34;1646048;84;26006;-65
2021/03/09 03:18:54;;;;;;;54.00;19.13;;;;;;;-2.99;60.77;101351.97;1673609;83;25924;-65
2021/03/09 03:21:23;;;;;;;61.33;19.77;;;;;;;-3.06;60.82;101359.23;1629204;84;27664;-65
2021/03/09 03:23:52;;;;;;;57.27;19.12;;;;;;;-3.04;61.07;101349.23;1659724;84;25787;-65
2021/03/09 03:26:21;;;;;;;58.98;18.90;;;;;;;-3.05;61.00;101350.52;1682234;83;25775;-65
2021/03/09 03:28:51;;;;;;;64.95;18.30;;;;;;;-3.07;61.01;101349.59;1633709;84;26651;-65
2021/03/09 03:31:20;;;;;;;57.38;17.57;;;;;;;-3.12;61.08;101348.17;1685612;81;25843;-65
2021/03/09 03:33:49;;;;;;;57.88;19.05;;;;;;;-3.13;61.19;101346.83;1704626;82;26837;-65
2021/03/09 03:36:18;;;;;;;61.53;17.95;;;;;;;-3.16;61.32;101344.13;1687280;81;26402;-65
2021/03/09 03:38:46;;;;;;;52.48;18.30;;;;;;;-3.19;61.43;101343.64;1712170;81;26515;-65
2021/03/09 03:41:14;;;;;;;57.75;19.07;;;;;;;-3.19;61.52;101343.64;1688826;81;26563;-65
2021/03/09 03:43:42;;;;;;;55.35;19.00;;;;;;;-3.18;61.48;101346.72;1688306;81;25996;-65
2021/03/09 03:46:09;;;;;;;64.82;19.85;;;;;;;-3.19;61.71;101344.95;1691609;80;27510;-65
2021/03/09 03:48:38;;;;;;;57.23;19.25;;;;;;;-3.18;61.66;101347.14;1658390;83;25832;-65
2021/03/09 03:51:14;;;;;;;59.18;20.45;;;;;;;-3.23;61.63;101347.03;1632197;85;25879;-65
2021/03/09 03:54:27;;;;;;;63.00;18.60;;;;;;;-3.28;61.72;101343.00;1654968;85;25886;-65
2021/03/09 03:57:31;;;;;;;58.35;19.25;;;;;;;-3.32;61.75;101342.89;1641171;84;25779;-65
2021/03/09 04:00:03;;;;;;;56.33;19.55;;;;;;;-3.35;61.88;101340.19;1656876;83;27927;-65
2021/03/09 04:02:31;;;;;;;60.58;18.35;;;;;;;-3.35;61.90;101340.19;1693618;81;26477;-65
2021/03/09 04:04:59;;;;;;;59.90;19.90;;;;;;;-3.38;61.99;101337.50;1694914;81;25935;-64
2021/03/09 04:07:27;;;;;;;62.58;19.12;;;;;;;-3.37;62.09;101344.09;1691450;83;26051;-65
2021/03/09 04:09:56;;;;;;;62.85;20.55;;;;;;;-3.36;62.21;101339.30;1690133;81;26058;-66
2021/03/09 04:12:28;;;;;;;71.72;22.42;;;;;;;-3.34;62.39;101332.79;1722845;81;27826;-65
2021/03/09 04:14:59;;;;;;;67.25;20.82;;;;;;;-3.31;62.43;101338.99;1700525;82;25958;-66
2021/03/09 04:17:27;;;;;;;50.58;17.35;;;;;;;-3.27;62.54;101334.70;1714406;81;26039;-66
2021/03/09 04:19:57;;;;;;;59.98;19.60;;;;;;;-3.34;62.38;101322.30;1713264;81;26511;-65
2021/03/09 04:22:27;;;;;;;53.40;19.32;;;;;;;-3.33;62.50;101332.83;1710287;81;25869;-65
2021/03/09 04:24:55;;;;;;;59.88;20.00;;;;;;;-3.37;62.64;101324.43;1698669;83;27871;-65
2021/03/09 04:27:23;;;;;;;64.37;19.02;;;;;;;-3.38;62.69;101330.52;1688686;81;26364;-64
2021/03/09 04:29:58;;;;;;;65.17;18.85;;;;;;;-3.36;62.84;101334.06;1666793;81;25985;-64
2021/03/09 04:32:27;;;;;;;62.23;18.80;;;;;;;-3.33;62.81;101322.77;1690398;81;25886;-64
2021/03/09 04:34:55;;;;;;;63.50;20.02;;;;;;;-3.33;62.87;101325.39;1701407;82;25775;-65
2021/03/09 04:37:24;;;;;;;58.13;19.17;;;;;;;-3.30;63.06;101328.08;1694463;81;28307;-65
2021/03/09 04:39:52;;;;;;;57.48;19.60;;;;;;;-3.29;63.05;101325.92;1691828;81;25858;-64
2021/03/09 04:42:20;;;;;;;55.58;19.07;;;;;;;-3.30;63.09;101333.33;1690092;81;25983;-64
2021/03/09 04:44:49;;;;;;;64.97;21.42;;;;;;;-3.34;63.12;101327.12;1687423;81;26893;-64
2021/03/09 04:47:19;;;;;;;60.45;19.42;;;;;;;-3.33;63.10;101327.58;1658194;83;25905;-64
2021/03/09 04:49:47;;;;;;;61.33;20.57;;;;;;;-3.39;63.04;101325.24;1704021;82;28409;-64
2021/03/09 04:52:15;;;;;;;59.25;19.45;;;;;;;-3.43;63.26;101333.88;1693699;81;26033;-64
2021/03/09 04:54:43;;;;;;;63.23;20.02;;;;;;;-3.45;63.27;101335.58;1696567;83;25928;-65
2021/03/09 04:57:10;;;;;;;57.00;18.65;;;;;;;-3.46;63.49;101340.36;1710399;80;26091;-64
2021/03/09 04:59:38;;;;;;;49.55;19.57;;;;;;;-3.42;63.61;101333.92;1708637;81;25876;-65
2021/03/09 05:02:06;;;;;;;66.95;19.67;;;;;;;-3.37;63.69;101330.09;1687484;82;28394;-65
2021/03/09 05:04:34;;;;;;;63.02;20.32;;;;;;;-3.41;63.42;101334.80;1717199;81;25976;-65
2021/03/09 05:07:01;;;;;;;62.38;20.17;;;;;;;-3.44;63.57;101326.86;1696811;81;25896;-65
2021/03/09 05:09:29;;;;;;;67.32;20.50;;;;;;;-3.46;63.62;101328.56;1699097;81;26389;-65
2021/03/09 05:11:57;;;;;;;55.98;20.35;;;;;;;-3.48;63.73;101329.84;1691726;82;25855;-65
2021/03/09 05:14:25;;;;;;;63.73;22.10;;;;;;;-3.52;63.70;101333.23;1697451;81;27355;-65
2021/03/09 05:16:53;;;;;;;62.27;20.55;;;;;;;-3.54;63.78;101332.73;1700018;81;25527;-65
2021/03/09 05:19:21;;;;;;;57.83;19.65;;;;;;;-3.55;63.79;101330.95;1702714;81;26405;-65
2021/03/09 05:21:48;;;;;;;66.87;20.82;;;;;;;-3.57;63.89;101329.61;1702102;81;26114;-65
2021/03/09 05:24:17;;;;;;;70.78;21.68;;;;;;;-3.58;64.02;101333.50;1690583;81;41816;-66
2021/03/09 05:26:45;;;;;;;79.10;25.60;;;;;;;-3.56;64.11;101334.43;1700469;81;26304;-66
2021/03/09 05:29:13;;;;;;;68.30;24.55;;;;;;;-3.57;64.10;101333.55;1707362;81;26521;-66
2021/03/09 05:31:40;;;;;;;67.05;22.55;;;;;;;-3.55;64.25;101334.89;1697584;81;25898;-66
2021/03/09 05:34:08;;;;;;;74.87;23.87;;;;;;;-3.55;64.29;101336.20;1690929;82;26103;-66
2021/03/09 05:36:36;;;;;;;75.55;22.20;;;;;;;-3.52;64.43;101337.16;1701095;81;27383;-65
2021/03/09 05:39:04;;;;;;;69.53;22.48;;;;;;;-3.52;64.51;101337.59;1714240;81;26328;-66
2021/03/09 05:41:35;;;;;;;67.30;23.55;;;;;;;-3.49;64.61;101342.91;1696406;81;25827;-66
2021/03/09 05:44:03;;;;;;;71.75;23.18;;;;;;;-3.46;64.72;101337.73;1701266;83;32644;-66
2021/03/09 05:46:31;;;;;;;73.20;22.93;;;;;;;-3.45;64.62;101327.72;1701972;81;25952;-66
2021/03/09 05:48:59;;;;;;;71.28;22.85;;;;;;;-3.46;64.63;101340.36;1701281;82;26448;-66
2021/03/09 05:51:31;;;;;;;78.72;25.35;;;;;;;-3.46;64.70;101328.56;1700042;81;26925;-66
2021/03/09 05:53:59;;;;;;;88.15;25.60;;;;;;;-3.45;64.75;101333.84;1694280;81;25873;-66
2021/03/09 05:56:27;;;;;;;78.17;24.85;;;;;;;-3.42;64.91;101329.98;1664264;83;25967;-66
2021/03/09 05:58:56;;;;;;;85.07;27.07;;;;;;;-3.34;65.06;101327.55;1653783;85;26659;-66
2021/03/09 06:01:23;;;;;;;85.75;28.27;;;;;;;-3.31;65.01;101335.48;1654449;83;25884;-67
2021/03/09 06:03:51;;;;;;;96.08;28.98;;;;;;;-3.31;65.02;101332.86;1668517;83;27806;-66
2021/03/09 06:06:19;;;;;;;84.70;31.02;;;;;;;-3.31;65.06;101336.38;1640344;84;26011;-67
2021/03/09 06:08:46;;;;;;;85.05;27.50;;;;;;;-3.25;65.23;101335.63;1653723;83;25957;-67
2021/03/09 06:11:20;;;;;;;82.22;27.65;;;;;;;-3.21;65.11;101340.09;1658095;85;26633;-68
2021/03/09 06:13:48;;;;;;;81.82;27.25;;;;;;;-3.30;65.05;101325.45;1646437;83;25855;-67
2021/03/09 06:16:17;;;;;;;79.37;26.37;;;;;;;-3.20;65.25;101338.36;1662208;83;27414;-68
2021/03/09 06:18:58;;;;;;;74.05;27.10;;;;;;;-3.15;65.34;101339.35;1660812;84;26574;-68
2021/03/09 06:21:26;;;;;;;73.40;26.65;;;;;;;-3.14;65.37;101341.13;1671163;84;26528;-66
2021/03/09 06:23:54;;;;;;;77.75;26.33;;;;;;;-3.05;65.59;101344.84;1652847;84;26063;-67
2021/03/09 06:26:40;;;;;;;88.87;28.77;;;;;;;-2.97;65.59;101345.02;1655296;84;25931;-65
2021/03/09 06:29:12;;;;;;;104.07;31.85;;;;;;;-2.94;65.60;101349.02;1662482;83;27860;-66
2021/03/09 06:31:51;;;;;;;96.15;31.30;;;;;;;-2.90;65.61;101348.66;1656002;85;25951;-66
2021/03/09 06:34:33;;;;;;;87.75;29.48;;;;;;;-2.85;65.71;101356.21;1654501;84;25934;-66
2021/03/09 06:37:15;;;;;;;90.47;26.93;;;;;;;-2.77;65.71;101346.77;1653896;84;26796;-64
2021/03/09 06:39:51;;;;;;;96.63;28.80;;;;;;;-2.77;65.53;101353.33;1673070;84;25758;-66
2021/03/09 06:42:23;;;;;;;71.95;26.68;;;;;;;-2.76;65.74;101353.80;1653245;84;27625;-66
2021/03/09 06:44:55;;;;;;;86.92;29.55;;;;;;;-2.76;65.75;101355.98;1649421;84;25953;-65
2021/03/09 06:47:47;;;;;;;75.22;26.45;;;;;;;-2.74;65.70;101360.84;1667469;84;25963;-66
2021/03/09 06:50:21;;;;;;;71.40;25.57;;;;;;;-2.73;65.71;101354.74;1653849;86;25899;-66
2021/03/09 06:53:04;;;;;;;79.42;26.77;;;;;;;-2.70;65.76;101365.73;1666444;84;25875;-66
2021/03/09 06:55:34;;;;;;;75.05;25.85;;;;;;;-2.68;65.87;101360.09;1654097;84;27963;-66
2021/03/09 06:58:12;;;;;;;74.10;25.30;;;;;;;-2.63;65.87;101363.70;1646645;84;25812;-66
2021/03/09 07:00:42;;;;;;;83.27;26.93;;;;;;;-2.59;65.89;101364.62;1648807;84;25992;-67
2021/03/09 07:03:31;;;;;;;81.37;26.60;;;;;;;-2.52;65.95;101371.77;1680193;83;26231;-67
2021/03/09 07:05:59;;;;;;;78.83;26.12;;;;;;;-2.47;66.07;101371.02;1655743;85;25949;-67
2021/03/09 07:08:27;;;;;;;81.63;27.07;;;;;;;-2.39;66.12;101369.86;1649838;84;27767;-67
2021/03/09 07:10:56;;;;;;;69.27;24.43;;;;;;;-2.31;66.15;101374.41;1649164;84;25905;-66
2021/03/09 07:13:26;;;;;;;78.45;25.55;;;;;;;-2.25;66.15;101370.14;1650183;84;26019;-66
2021/03/09 07:15:55;;;;;;;83.78;27.75;;;;;;;-2.20;66.21;101372.00;1653475;84;25853;-66
2021/03/09 07:18:26;;;;;;;76.10;26.68;;;;;;;-2.12;66.28;101370.84;1651858;85;25871;-66
2021/03/09 07:20:56;;;;;;;70.52;28.45;;;;;;;-2.01;66.30;101371.94;1651324;84;28811;-66
2021/03/09 07:23:25;;;;;;;84.20;27.27;;;;;;;-1.95;66.22;101368.12;1668889;84;26539;-65
2021/03/09 07:25:57;;;;;;;72.80;26.20;;;;;;;-1.87;66.30;101370.45;1658604;85;26441;-66
2021/03/09 07:28:37;;;;;;;77.42;27.45;;;;;;;-1.82;66.30;101370.11;1617706;85;25938;-67
2021/03/09 07:31:07;;;;;;;77.80;26.27;;;;;;;-1.74;66.30;101372.45;1664896;84;26481;-67
2021/03/09 07:33:36;;;;;;;80.40;28.05;;;;;;;-1.66;66.34;101371.28;1656724;84;27659;-66
2021/03/09 07:36:05;;;;;;;78.12;27.82;;;;;;;-1.56;66.37;101368.38;1652353;85;26101;-65
2021/03/09 07:38:34;;;;;;;73.92;27.37;;;;;;;-1.49;66.33;101368.52;1648126;85;25871;-66
2021/03/09 07:41:02;;;;;;;75.85;26.68;;;;;;;-1.44;66.28;101368.59;1653565;84;25830;-66
2021/03/09 07:43:30;;;;;;;78.22;26.90;;;;;;;-1.39;66.34;101362.98;1659683;84;25922;-66
2021/03/09 07:45:59;;;;;;;93.92;29.87;;;;;;;-1.32;66.35;101368.37;1647972;85;25957;-67
2021/03/09 07:48:27;;;;;;;67.12;26.02;;;;;;;-1.26;66.34;101368.02;1650456;84;26188;-66
2021/03/09 07:51:04;;;;;;;85.87;28.38;;;;;;;-1.18;66.34;101373.84;1649911;85;25921;-68
2021/03/09 07:53:32;;;;;;;73.47;27.60;;;;;;;-1.13;66.29;101364.28;1635544;84;26079;-67
2021/03/09 07:56:14;;;;;;;76.50;28.07;;;;;;;-1.06;66.34;101365.27;1648697;85;26203;-67
2021/03/09 07:58:43;;;;;;;81.45;28.60;;;;;;;-1.00;66.30;101362.73;1642683;85;27946;-67
2021/03/09 08:01:12;;;;;;;76.53;27.13;;;;;;;-0.96;66.30;101360.59;1646993;85;25922;-66
2021/03/09 08:03:42;;;;;;;83.75;28.80;;;;;;;-0.92;66.27;101353.62;1648846;85;26678;-65
2021/03/09 08:06:17;;;;;;;81.55;27.87;;;;;;;-0.87;66.26;101358.53;1644637;84;26803;-65
2021/03/09 08:08:55;;;;;;;72.45;25.25;;;;;;;-0.82;66.24;101351.16;1673025;83;26237;-65
2021/03/09 08:11:28;;;;;;;83.27;28.38;;;;;;;-0.80;66.22;101340.65;1687321;81;27956;-66
2021/03/09 08:14:11;;;;;;;74.60;27.35;;;;;;;-0.73;66.22;101349.08;1684690;81;26517;-66
2021/03/09 08:16:42;;;;;;;82.60;28.75;;;;;;;-0.65;66.20;101343.49;1700838;81;25789;-66
2021/03/09 08:19:26;;;;;;;87.80;29.07;;;;;;;-0.60;66.23;101340.48;1693584;82;27424;-67
2021/03/09 08:22:01;;;;;;;95.95;30.43;;;;;;;-0.54;66.11;101346.27;1685125;83;26109;-67
2021/03/09 08:24:46;;;;;;;83.67;30.32;;;;;;;-0.50;66.16;101340.17;1705272;81;27396;-65
2021/03/09 08:27:36;;;;;;;80.65;27.98;;;;;;;-0.42;66.16;101334.14;1691471;83;26477;-65
2021/03/09 08:30:27;;;;;;;77.35;29.25;;;;;;;-0.34;66.15;101328.96;1712975;81;25928;-67
2021/03/09 08:33:23;;;;;;;83.15;29.80;;;;;;;-0.25;66.08;101332.14;1711236;81;26049;-66
2021/03/09 08:35:52;;;;;;;84.30;29.52;;;;;;;-0.20;66.04;101330.44;1717443;81;25840;-66
2021/03/09 08:38:22;;;;;;;85.67;27.93;;;;;;;-0.14;66.03;101331.83;1705736;81;27454;-66
2021/03/09 08:41:05;;;;;;;76.92;28.95;;;;;;;-0.06;65.96;101327.52;1687696;82;25894;-66
2021/03/09 08:43:34;;;;;;;78.20;28.32;;;;;;;0.01;65.93;101314.83;1717938;81;25844;-67
2021/03/09 08:46:04;;;;;;;85.00;29.75;;;;;;;0.11;65.90;101323.28;1689573;82;26125;-67
2021/03/09 08:48:47;;;;;;;92.37;29.55;;;;;;;0.19;65.90;101324.23;1695581;81;26261;-66
2021/03/09 08:51:42;;;;;;;85.22;30.12;;;;;;;0.27;65.82;101322.56;1694197;81;27434;-66
2021/03/09 08:54:31;;;;;;;92.67;32.70;;;;;;;0.28;65.60;101319.05;1642600;82;26221;-66
2021/03/09 08:57:02;;;;;;;76.77;28.92;;;;;;;0.32;65.64;101313.38;1691635;82;25972;-66
2021/03/09 08:59:31;;;;;;;;;;;;;;;0.40;65.57;101312.13;1693022;81;26599;-67
2021/03/09 09:02:21;;;;;;;66.90;24.27;;;;;;;0.46;65.45;101309.54;1670727;84;26459;-66
2021/03/09 09:04:59;;;;;;;70.83;24.23;;;;;;;0.52;65.42;101310.47;1661227;83;27753;-65
2021/03/09 09:07:31;;;;;;;54.20;22.50;;;;;;;0.60;65.35;101311.85;1654161;83;25913;-65
2021/03/09 09:10:13;;;;;;;67.97;25.57;;;;;;;0.68;65.26;101315.43;1649690;84;26060;-64
2021/03/09 09:12:44;;;;;;;68.20;21.60;;;;;;;0.71;65.17;101308.86;1657202;83;25988;-66
2021/03/09 09:15:17;;;;;;;67.58;25.32;;;;;;;0.80;65.20;101297.48;1650824;84;26948;-66
2021/03/09 09:18:02;;;;;;;59.23;21.15;;;;;;;0.84;65.03;101303.23;1667068;84;28041;-66
2021/03/09 09:20:49;;;;;;;65.97;19.80;;;;;;;0.91;64.97;101301.08;1650342;84;26010;-67
2021/03/09 09:23:27;;;;;;;48.30;17.30;;;;;;;1.00;64.89;101298.94;1665550;84;26477;-67
2021/03/09 09:25:58;;;;;;;57.83;16.07;;;;;;;1.11;64.75;101303.41;1673200;84;26743;-66
2021/03/09 09:28:33;;;;;;;35.60;13.70;;;;;;;1.16;64.55;101300.36;1670065;84;25794;-66
2021/03/09 09:31:12;;;;;;;37.38;12.40;;;;;;;1.20;64.44;101295.53;1658333;84;26160;-67
2021/03/09 09:33:39;;;;;;;31.52;10.13;;;;;;;1.24;64.36;101298.64;1652846;84;25895;-67
2021/03/09 09:36:07;;;;;;;27.50;11.30;;;;;;;1.29;64.25;101294.26;1660874;84;25992;-66
2021/03/09 09:38:35;;;;;;;38.33;13.35;;;;;;;1.34;64.00;101282.40;1656137;84;26742;-66
2021/03/09 09:41:04;;;;;;;43.38;14.00;;;;;;;1.39;63.97;101285.94;1659761;83;25858;-65
2021/03/09 09:43:33;;;;;;;31.77;12.90;;;;;;;1.40;63.77;101282.86;1648720;84;26907;-67
2021/03/09 09:46:08;;;;;;;58.63;18.20;;;;;;;1.41;63.69;101282.87;1658660;83;25895;-67
2021/03/09 09:48:40;;;;;;;47.35;16.77;;;;;;;1.47;63.30;101280.25;1656911;83;25807;-66
2021/03/09 09:51:20;;;;;;;41.40;11.43;;;;;;;1.53;63.45;101278.95;1663783;83;25917;-66
2021/03/09 09:53:51;;;;;;;24.37;9.53;;;;;;;1.62;63.33;101282.95;1681920;83;26235;-66
2021/03/09 09:56:23;;;;;;;30.95;12.63;;;;;;;1.74;63.21;101281.22;1659857;83;27329;-67
2021/03/09 09:58:58;;;;;;;22.48;8.83;;;;;;;1.80;63.00;101283.88;1662798;83;26316;-68
2021/03/09 10:01:38;;;;;;;23.83;9.35;;;;;;;1.84;62.90;101285.21;1663445;83;26158;-66
2021/03/09 10:04:13;;;;;;;22.42;7.62;;;;;;;1.89;62.67;101286.55;1661928;83;26708;-65
2021/03/09 10:06:51;;;;;;;26.52;9.03;;;;;;;1.94;62.57;101282.16;1688843;83;26019;-65
2021/03/09 10:09:24;;;;;;;40.10;15.15;;;;;;;2.01;62.19;101288.33;1662787;84;29828;-67
2021/03/09 10:12:00;;;;;;;29.12;10.75;;;;;;;2.02;62.10;101287.02;1648971;85;25942;-66
2021/03/09 10:14:36;;;;;;;35.03;9.10;;;;;;;2.05;61.90;101280.84;1657387;84;25891;-66
2021/03/09 10:17:04;;;;;;;33.73;11.25;;;;;;;2.13;61.81;101281.30;1628441;85;25897;-66
2021/03/09 10:19:37;;;;;;;32.90;10.05;;;;;;;2.22;61.68;101284.40;1650135;84;25899;-65
2021/03/09 10:22:27;;;;;;;25.97;8.53;;;;;;;2.27;61.53;101268.97;1643126;85;27600;-66
2021/03/09 10:25:10;;;;;;;22.52;8.08;;;;;;;2.40;61.29;101267.65;1634894;84;26000;-66
2021/03/09 10:27:38;;;;;;;86.87;15.70;;;;;;;2.50;61.22;101261.47;1667526;84;26536;-66
2021/03/09 10:30:08;;;;;;;39.80;12.88;;;;;;;2.54;61.00;101262.80;1646566;84;26572;-67
2021/03/09 10:32:52;;;;;;;26.07;10.03;;;;;;;2.64;60.93;101265.40;1645814;84;25887;-67
2021/03/09 10:35:20;;;;;;;27.82;9.98;;;;;;;2.76;60.77;101270.23;1652496;84;28250;-67
2021/03/09 10:37:47;;;;;;;27.42;9.70;;;;;;;2.86;60.55;101268.45;1643351;85;25890;-66
2021/03/09 10:40:16;;;;;;;22.50;9.38;;;;;;;2.92;60.25;101265.80;1639570;84;25799;-66
2021/03/09 10:42:51;;;;;;;33.28;10.30;;;;;;;2.95;60.12;101272.41;1656326;84;26308;-66
2021/03/09 10:45:29;;;;;;;26.77;10.35;;;;;;;2.97;60.06;101267.98;1640925;84;26366;-67
2021/03/09 10:48:00;;;;;;;39.65;11.45;;;;;;;3.04;59.92;101265.77;1654561;83;27741;-67
2021/03/09 10:50:31;;;;;;;26.25;10.25;;;;;;;3.09;59.69;101263.10;1645698;84;26670;-67
2021/03/09 10:52:59;;;;;;;28.80;10.95;;;;;;;3.18;59.58;101264.41;1641035;84;25908;-66
2021/03/09 10:55:26;;;;;;;25.08;10.78;;;;;;;3.29;59.55;101262.59;1648685;84;26048;-67
2021/03/09 10:57:54;;;;;;;37.28;13.20;;;;;;;3.33;59.25;101264.34;1637886;84;25915;-66
2021/03/09 11:00:23;;;;;;;32.67;12.58;;;;;;;3.26;58.95;101259.95;1637602;84;26834;-67
2021/03/09 11:02:51;;;;;;;34.30;13.38;;;;;;;3.27;58.97;101259.07;1642446;84;25911;-66
2021/03/09 11:05:19;;;;;;;34.30;12.18;;;;;;;3.28;58.85;101254.66;1651043;85;25861;-65
2021/03/09 11:07:46;;;;;;;28.42;12.40;;;;;;;3.28;58.67;101252.00;1639757;86;25986;-66
2021/03/09 11:10:16;;;;;;;36.88;14.98;;;;;;;3.29;58.62;101255.97;1629036;86;26671;-65
2021/03/09 11:12:44;;;;;;;40.88;14.80;;;;;;;3.39;58.58;101253.72;1659756;85;27491;-65
2021/03/09 11:15:13;;;;;;;30.27;11.85;;;;;;;3.53;58.56;101246.59;1631717;86;25908;-67
2021/03/09 11:17:42;;;;;;;25.12;10.63;;;;;;;3.71;58.46;101253.56;1639209;86;25847;-67
2021/03/09 11:20:11;;;;;;;39.53;11.63;;;;;;;3.82;58.26;101244.22;1633164;85;26259;-67
2021/03/09 11:22:39;;;;;;;29.70;11.15;;;;;;;3.97;58.23;101244.13;1636635;86;25820;-65
2021/03/09 11:25:09;;;;;;;29.07;11.22;;;;;;;4.12;57.95;101242.69;1633986;85;27833;-66
2021/03/09 11:27:37;;;;;;;29.48;11.18;;;;;;;4.21;57.86;101229.35;1648760;84;25818;-65
2021/03/09 11:30:07;;;;;;;23.55;10.43;;;;;;;4.38;57.72;101234.97;1620080;85;25811;-66
2021/03/09 11:32:35;;;;;;;29.23;11.20;;;;;;;4.61;57.67;101231.66;1652101;84;26812;-65
2021/03/09 11:35:06;;;;;;;31.35;11.38;;;;;;;4.85;57.46;101222.56;1649202;85;26502;-67